sensor_id;sensor_type;location;lat;lon;timestamp;pressure;altitude;pressure_sealevel;temperature;humidity
64404;BME280;50726;54.912;-8.392;2022-10-16T00:01:24;98774.19;;;23.90;nan
64404;BME280;50726;54.912;-8.392;2022-10-16T00:03:51;98779.56;;;23.98;nan
64404;BME280;50726;54.912;-8.392;2022-10-16T00:06:19;98776.66;;;24.66;nan
64404;BME280;50726;54.912;-8.392;2022-10-16T00:08:46;98775.88;;;24.40;nan
64404;BME280;50726;54.912;-8.392;2022-10-16T00:11:23;98752.03;;;24.31;nan
64404;BME280;50726;54.912;-8.392;2022-10-16T00:13:52;98780.13;;;24.66;nan
64404;BME280;50726;54.912;-8.392;2022-10-16T00:16:20;98798.41;;;24.38;nan
64404;BME280;50726;54.912;-8.392;2022-10-16T00:18:45;98779.84;;;24.53;nan
64404;BME280;50726;54.912;-8.392;2022-10-16T00:21:23;98784.97;;;25.19;nan
64404;BME280;50726;54.912;-8.392;2022-10-16T00:23:55;98790.72;;;25.08;nan
64404;BME280;50726;54.912;-8.392;2022-10-16T00:26:22;98751.84;;;24.32;nan
64404;BME280;50726;54.912;-8.392;2022-10-16T00:28:49;98792.69;;;25.14;nan
64404;BME280;50726;54.912;-8.392;2022-10-16T00:31:16;98799.91;;;25.05;nan
64404;BME280;50726;54.912;-8.392;2022-10-16T00:33:42;98813.78;;;25.81;nan
64404;BME280;50726;54.912;-8.392;2022-10-16T00:36:11;98814.28;;;24.23;nan
64404;BME280;50726;54.912;-8.392;2022-10-16T00:38:37;98817.94;;;24.47;nan
64404;BME280;50726;54.912;-8.392;2022-10-16T00:41:04;98813.91;;;23.68;nan
64404;BME280;50726;54.912;-8.392;2022-10-16T00:43:48;98817.72;;;25.30;nan
64404;BME280;50726;54.912;-8.392;2022-10-16T00:46:18;98806.72;;;25.56;nan
64404;BME280;50726;54.912;-8.392;2022-10-16T00:48:57;98809.78;;;25.45;nan
64404;BME280;50726;54.912;-8.392;2022-10-16T00:51:30;98800.50;;;24.84;nan
64404;BME280;50726;54.912;-8.392;2022-10-16T00:53:56;98796.50;;;24.80;nan
64404;BME280;50726;54.912;-8.392;2022-10-16T00:56:22;98801.69;;;24.73;nan
64404;BME280;50726;54.912;-8.392;2022-10-16T00:58:48;98816.97;;;24.39;nan
64404;BME280;50726;54.912;-8.392;2022-10-16T01:01:14;98833.75;;;25.30;nan
64404;BME280;50726;54.912;-8.392;2022-10-16T01:03:40;98825.97;;;25.52;nan
64404;BME280;50726;54.912;-8.392;2022-10-16T01:12:12;98838.97;;;26.57;nan
64404;BME280;50726;54.912;-8.392;2022-10-16T01:18:00;98870.97;;;26.35;nan
64404;BME280;50726;54.912;-8.392;2022-10-16T01:20:33;98842.88;;;26.84;nan
64404;BME280;50726;54.912;-8.392;2022-10-16T01:28:38;98872.72;;;25.32;nan
64404;BME280;50726;54.912;-8.392;2022-10-16T01:31:08;98874.53;;;25.40;nan
64404;BME280;50726;54.912;-8.392;2022-10-16T01:33:42;98861.97;;;25.81;nan
64404;BME280;50726;54.912;-8.392;2022-10-16T01:36:18;98876.25;;;25.96;nan
64404;BME280;50726;54.912;-8.392;2022-10-16T01:38:48;98889.31;;;25.91;nan
64404;BME280;50726;54.912;-8.392;2022-10-16T01:41:21;98866.13;;;25.83;nan
64404;BME280;50726;54.912;-8.392;2022-10-16T01:43:57;98911.84;;;26.90;nan
64404;BME280;50726;54.912;-8.392;2022-10-16T01:46:27;98970.00;;;25.48;nan
64404;BME280;50726;54.912;-8.392;2022-10-16T01:48:54;98964.53;;;25.33;nan
64404;BME280;50726;54.912;-8.392;2022-10-16T01:51:22;98953.59;;;25.59;nan
64404;BME280;50726;54.912;-8.392;2022-10-16T01:53:53;98952.44;;;25.62;nan
64404;BME280;50726;54.912;-8.392;2022-10-16T01:56:20;98965.84;;;25.45;nan
64404;BME280;50726;54.912;-8.392;2022-10-16T01:58:53;98955.72;;;26.36;nan
64404;BME280;50726;54.912;-8.392;2022-10-16T02:01:22;98997.94;;;25.62;nan
64404;BME280;50726;54.912;-8.392;2022-10-16T02:03:52;98984.44;;;25.22;nan
64404;BME280;50726;54.912;-8.392;2022-10-16T02:06:19;98992.00;;;24.93;nan
64404;BME280;50726;54.912;-8.392;2022-10-16T02:08:45;98982.50;;;23.98;nan
64404;BME280;50726;54.912;-8.392;2022-10-16T02:11:11;99038.56;;;24.41;nan
64404;BME280;50726;54.912;-8.392;2022-10-16T02:13:38;99022.66;;;24.31;nan
64404;BME280;50726;54.912;-8.392;2022-10-16T02:16:05;99108.78;;;24.17;nan
64404;BME280;50726;54.912;-8.392;2022-10-16T02:18:30;99050.91;;;23.99;nan
64404;BME280;50726;54.912;-8.392;2022-10-16T02:23:57;99048.03;;;24.27;nan
64404;BME280;50726;54.912;-8.392;2022-10-16T02:26:32;99061.47;;;24.60;nan
64404;BME280;50726;54.912;-8.392;2022-10-16T02:29:04;99055.34;;;24.85;nan
64404;BME280;50726;54.912;-8.392;2022-10-16T02:31:35;99069.84;;;25.65;nan
64404;BME280;50726;54.912;-8.392;2022-10-16T02:34:04;99058.25;;;25.90;nan
64404;BME280;50726;54.912;-8.392;2022-10-16T02:36:32;99092.31;;;25.23;nan
64404;BME280;50726;54.912;-8.392;2022-10-16T02:39:00;99083.94;;;25.26;nan
64404;BME280;50726;54.912;-8.392;2022-10-16T02:41:27;99079.75;;;25.15;nan
64404;BME280;50726;54.912;-8.392;2022-10-16T02:43:53;99101.00;;;24.91;nan
64404;BME280;50726;54.912;-8.392;2022-10-16T02:46:20;99098.50;;;25.56;nan
64404;BME280;50726;54.912;-8.392;2022-10-16T02:48:46;99105.69;;;25.39;nan
64404;BME280;50726;54.912;-8.392;2022-10-16T02:51:12;99088.03;;;24.62;nan
64404;BME280;50726;54.912;-8.392;2022-10-16T02:53:38;99121.41;;;24.49;nan
64404;BME280;50726;54.912;-8.392;2022-10-16T02:56:04;99126.50;;;24.77;nan
64404;BME280;50726;54.912;-8.392;2022-10-16T02:58:29;99125.69;;;23.72;nan
64404;BME280;50726;54.912;-8.392;2022-10-16T03:00:55;99124.41;;;25.47;nan
64404;BME280;50726;54.912;-8.392;2022-10-16T03:03:21;99144.81;;;25.15;nan
64404;BME280;50726;54.912;-8.392;2022-10-16T03:05:47;99138.59;;;26.46;nan
64404;BME280;50726;54.912;-8.392;2022-10-16T03:08:13;99141.75;;;25.85;nan
64404;BME280;50726;54.912;-8.392;2022-10-16T03:10:39;99146.88;;;26.11;nan
64404;BME280;50726;54.912;-8.392;2022-10-16T03:13:05;99175.25;;;25.72;nan
64404;BME280;50726;54.912;-8.392;2022-10-16T03:15:30;99177.56;;;25.09;nan
64404;BME280;50726;54.912;-8.392;2022-10-16T03:18:00;99174.53;;;26.12;nan
64404;BME280;50726;54.912;-8.392;2022-10-16T03:20:26;99170.63;;;26.71;nan
64404;BME280;50726;54.912;-8.392;2022-10-16T03:22:51;99169.06;;;27.55;nan
64404;BME280;50726;54.912;-8.392;2022-10-16T03:25:17;99172.63;;;27.09;nan
64404;BME280;50726;54.912;-8.392;2022-10-16T03:27:43;99179.31;;;25.68;nan
64404;BME280;50726;54.912;-8.392;2022-10-16T03:30:09;99181.16;;;27.59;nan
64404;BME280;50726;54.912;-8.392;2022-10-16T03:32:34;99187.06;;;26.68;nan
64404;BME280;50726;54.912;-8.392;2022-10-16T03:35:00;99195.69;;;26.95;nan
64404;BME280;50726;54.912;-8.392;2022-10-16T03:37:26;99197.63;;;26.13;nan
64404;BME280;50726;54.912;-8.392;2022-10-16T03:39:52;99205.59;;;28.18;nan
64404;BME280;50726;54.912;-8.392;2022-10-16T03:42:17;99197.50;;;25.81;nan
64404;BME280;50726;54.912;-8.392;2022-10-16T03:44:43;99206.31;;;27.35;nan
64404;BME280;50726;54.912;-8.392;2022-10-16T03:47:08;99207.31;;;27.81;nan
64404;BME280;50726;54.912;-8.392;2022-10-16T03:49:34;99204.88;;;26.61;nan
64404;BME280;50726;54.912;-8.392;2022-10-16T03:51:59;99209.53;;;27.77;nan
64404;BME280;50726;54.912;-8.392;2022-10-16T03:54:25;99225.34;;;27.25;nan
64404;BME280;50726;54.912;-8.392;2022-10-16T03:56:50;99214.56;;;26.70;nan
64404;BME280;50726;54.912;-8.392;2022-10-16T03:59:16;99230.88;;;27.24;nan
64404;BME280;50726;54.912;-8.392;2022-10-16T04:01:41;99240.38;;;27.66;nan
64404;BME280;50726;54.912;-8.392;2022-10-16T04:04:07;99245.06;;;27.64;nan
64404;BME280;50726;54.912;-8.392;2022-10-16T04:06:33;99260.94;;;27.19;nan
64404;BME280;50726;54.912;-8.392;2022-10-16T04:08:58;99257.00;;;27.06;nan
64404;BME280;50726;54.912;-8.392;2022-10-16T04:11:24;99248.47;;;28.35;nan
64404;BME280;50726;54.912;-8.392;2022-10-16T04:13:49;99255.56;;;28.12;nan
64404;BME280;50726;54.912;-8.392;2022-10-16T04:16:15;99258.34;;;28.19;nan
64404;BME280;50726;54.912;-8.392;2022-10-16T04:18:41;99259.28;;;28.11;nan
64404;BME280;50726;54.912;-8.392;2022-10-16T04:21:07;99261.16;;;28.56;nan
64404;BME280;50726;54.912;-8.392;2022-10-16T04:23:33;99265.63;;;27.48;nan
64404;BME280;50726;54.912;-8.392;2022-10-16T04:25:59;99273.88;;;27.94;nan
64404;BME280;50726;54.912;-8.392;2022-10-16T04:28:25;99273.88;;;27.47;nan
64404;BME280;50726;54.912;-8.392;2022-10-16T04:30:53;99277.88;;;27.74;nan
64404;BME280;50726;54.912;-8.392;2022-10-16T04:33:19;99282.00;;;27.07;nan
64404;BME280;50726;54.912;-8.392;2022-10-16T04:35:45;99291.97;;;26.81;nan
64404;BME280;50726;54.912;-8.392;2022-10-16T04:38:10;99294.38;;;27.40;nan
64404;BME280;50726;54.912;-8.392;2022-10-16T04:40:36;99295.25;;;27.00;nan
64404;BME280;50726;54.912;-8.392;2022-10-16T04:43:05;99320.19;;;27.96;nan
64404;BME280;50726;54.912;-8.392;2022-10-16T04:45:31;99320.38;;;27.39;nan
64404;BME280;50726;54.912;-8.392;2022-10-16T04:47:59;99315.41;;;26.88;nan
64404;BME280;50726;54.912;-8.392;2022-10-16T04:50:26;99314.25;;;27.62;nan
64404;BME280;50726;54.912;-8.392;2022-10-16T04:52:51;99339.91;;;28.11;nan
64404;BME280;50726;54.912;-8.392;2022-10-16T04:55:20;99358.53;;;26.70;nan
64404;BME280;50726;54.912;-8.392;2022-10-16T04:57:45;99358.22;;;28.31;nan
64404;BME280;50726;54.912;-8.392;2022-10-16T05:00:11;99352.59;;;27.94;nan
64404;BME280;50726;54.912;-8.392;2022-10-16T05:02:37;99346.69;;;28.46;nan
64404;BME280;50726;54.912;-8.392;2022-10-16T05:05:03;99363.69;;;29.95;nan
64404;BME280;50726;54.912;-8.392;2022-10-16T05:07:28;99359.47;;;29.34;nan
64404;BME280;50726;54.912;-8.392;2022-10-16T05:09:54;99359.34;;;27.67;nan
64404;BME280;50726;54.912;-8.392;2022-10-16T05:12:20;99373.19;;;29.39;nan
64404;BME280;50726;54.912;-8.392;2022-10-16T05:14:46;99371.47;;;28.86;nan
64404;BME280;50726;54.912;-8.392;2022-10-16T05:17:11;99369.72;;;30.19;nan
64404;BME280;50726;54.912;-8.392;2022-10-16T05:19:37;99374.41;;;29.67;nan
64404;BME280;50726;54.912;-8.392;2022-10-16T05:22:02;99369.22;;;30.09;nan
64404;BME280;50726;54.912;-8.392;2022-10-16T05:24:28;99367.84;;;30.20;nan
64404;BME280;50726;54.912;-8.392;2022-10-16T05:26:54;99380.66;;;28.77;nan
64404;BME280;50726;54.912;-8.392;2022-10-16T05:29:19;99380.81;;;27.98;nan
64404;BME280;50726;54.912;-8.392;2022-10-16T05:31:45;99378.16;;;28.90;nan
64404;BME280;50726;54.912;-8.392;2022-10-16T05:34:11;99400.13;;;28.25;nan
64404;BME280;50726;54.912;-8.392;2022-10-16T05:36:36;99399.22;;;26.90;nan
64404;BME280;50726;54.912;-8.392;2022-10-16T05:39:03;99398.19;;;28.34;nan
64404;BME280;50726;54.912;-8.392;2022-10-16T05:41:28;99399.59;;;29.29;nan
64404;BME280;50726;54.912;-8.392;2022-10-16T05:43:54;99404.16;;;30.17;nan
64404;BME280;50726;54.912;-8.392;2022-10-16T05:46:20;99416.47;;;28.92;nan
64404;BME280;50726;54.912;-8.392;2022-10-16T05:48:46;99435.75;;;27.07;nan
64404;BME280;50726;54.912;-8.392;2022-10-16T05:51:13;99439.16;;;27.41;nan
64404;BME280;50726;54.912;-8.392;2022-10-16T05:53:40;99447.16;;;27.01;nan
64404;BME280;50726;54.912;-8.392;2022-10-16T05:56:08;99454.19;;;27.19;nan
64404;BME280;50726;54.912;-8.392;2022-10-16T05:58:35;99462.81;;;28.41;nan
64404;BME280;50726;54.912;-8.392;2022-10-16T06:01:21;99465.97;;;29.37;nan
64404;BME280;50726;54.912;-8.392;2022-10-16T06:03:50;99472.97;;;28.54;nan
64404;BME280;50726;54.912;-8.392;2022-10-16T06:06:21;99488.72;;;27.79;nan
64404;BME280;50726;54.912;-8.392;2022-10-16T06:08:48;99491.63;;;28.32;nan
64404;BME280;50726;54.912;-8.392;2022-10-16T06:11:25;99489.84;;;29.10;nan
64404;BME280;50726;54.912;-8.392;2022-10-16T06:13:52;99495.78;;;29.05;nan
64404;BME280;50726;54.912;-8.392;2022-10-16T06:16:19;99494.34;;;28.94;nan
64404;BME280;50726;54.912;-8.392;2022-10-16T06:18:45;99500.41;;;28.26;nan
64404;BME280;50726;54.912;-8.392;2022-10-16T06:21:14;99518.31;;;29.04;nan
64404;BME280;50726;54.912;-8.392;2022-10-16T06:23:41;99520.69;;;28.60;nan
64404;BME280;50726;54.912;-8.392;2022-10-16T06:26:09;99521.41;;;29.31;nan
64404;BME280;50726;54.912;-8.392;2022-10-16T06:28:35;99523.81;;;29.86;nan
64404;BME280;50726;54.912;-8.392;2022-10-16T06:31:02;99546.69;;;29.90;nan
64404;BME280;50726;54.912;-8.392;2022-10-16T06:33:29;99552.56;;;29.48;nan
64404;BME280;50726;54.912;-8.392;2022-10-16T06:36:00;99537.19;;;31.82;nan
64404;BME280;50726;54.912;-8.392;2022-10-16T06:38:26;99544.06;;;31.85;nan
64404;BME280;50726;54.912;-8.392;2022-10-16T06:40:53;99539.84;;;32.31;nan
64404;BME280;50726;54.912;-8.392;2022-10-16T06:43:19;99542.00;;;32.43;nan
64404;BME280;50726;54.912;-8.392;2022-10-16T06:45:53;99542.72;;;32.23;nan
64404;BME280;50726;54.912;-8.392;2022-10-16T06:48:20;99545.19;;;32.04;nan
64404;BME280;50726;54.912;-8.392;2022-10-16T06:51:09;99543.91;;;33.16;nan
64404;BME280;50726;54.912;-8.392;2022-10-16T06:53:36;99558.53;;;30.85;nan
64404;BME280;50726;54.912;-8.392;2022-10-16T06:56:12;99579.22;;;29.88;nan
64404;BME280;50726;54.912;-8.392;2022-10-16T06:58:39;99579.31;;;28.01;nan
64404;BME280;50726;54.912;-8.392;2022-10-16T07:01:05;99574.47;;;29.07;nan
64404;BME280;50726;54.912;-8.392;2022-10-16T07:03:32;99576.25;;;29.15;nan
64404;BME280;50726;54.912;-8.392;2022-10-16T07:06:02;99588.81;;;30.43;nan
64404;BME280;50726;54.912;-8.392;2022-10-16T07:08:31;99592.13;;;29.63;nan
64404;BME280;50726;54.912;-8.392;2022-10-16T07:11:03;99590.63;;;29.60;nan
64404;BME280;50726;54.912;-8.392;2022-10-16T07:13:29;99597.16;;;29.81;nan
64404;BME280;50726;54.912;-8.392;2022-10-16T07:15:55;99598.19;;;29.80;nan
64404;BME280;50726;54.912;-8.392;2022-10-16T07:18:21;99595.72;;;30.67;nan
64404;BME280;50726;54.912;-8.392;2022-10-16T07:20:51;99603.56;;;28.88;nan
64404;BME280;50726;54.912;-8.392;2022-10-16T07:23:17;99613.94;;;28.68;nan
64404;BME280;50726;54.912;-8.392;2022-10-16T07:25:42;99617.31;;;29.70;nan
64404;BME280;50726;54.912;-8.392;2022-10-16T07:28:08;99618.13;;;28.71;nan
64404;BME280;50726;54.912;-8.392;2022-10-16T07:30:35;99611.84;;;29.64;nan
64404;BME280;50726;54.912;-8.392;2022-10-16T07:33:02;99624.91;;;29.52;nan
64404;BME280;50726;54.912;-8.392;2022-10-16T07:35:28;99620.31;;;28.99;nan
64404;BME280;50726;54.912;-8.392;2022-10-16T07:37:54;99635.81;;;30.04;nan
64404;BME280;50726;54.912;-8.392;2022-10-16T07:40:19;99636.09;;;29.79;nan
64404;BME280;50726;54.912;-8.392;2022-10-16T07:42:45;99650.16;;;29.51;nan
64404;BME280;50726;54.912;-8.392;2022-10-16T07:45:11;99648.19;;;29.98;nan
64404;BME280;50726;54.912;-8.392;2022-10-16T07:47:36;99654.84;;;29.87;nan
64404;BME280;50726;54.912;-8.392;2022-10-16T07:50:02;99660.53;;;30.22;nan
64404;BME280;50726;54.912;-8.392;2022-10-16T07:52:28;99670.47;;;29.77;nan
64404;BME280;50726;54.912;-8.392;2022-10-16T07:54:54;99677.56;;;30.38;nan
64404;BME280;50726;54.912;-8.392;2022-10-16T07:57:20;99671.03;;;30.47;nan
64404;BME280;50726;54.912;-8.392;2022-10-16T07:59:46;99676.44;;;31.50;nan
64404;BME280;50726;54.912;-8.392;2022-10-16T08:02:12;99678.91;;;31.01;nan
64404;BME280;50726;54.912;-8.392;2022-10-16T08:04:37;99681.34;;;32.25;nan
64404;BME280;50726;54.912;-8.392;2022-10-16T08:07:03;99675.88;;;31.54;nan
64404;BME280;50726;54.912;-8.392;2022-10-16T08:09:28;99677.06;;;31.01;nan
64404;BME280;50726;54.912;-8.392;2022-10-16T08:11:54;99685.22;;;30.86;nan
64404;BME280;50726;54.912;-8.392;2022-10-16T08:14:19;99689.28;;;31.98;nan
64404;BME280;50726;54.912;-8.392;2022-10-16T08:16:45;99690.34;;;34.23;nan
64404;BME280;50726;54.912;-8.392;2022-10-16T08:19:10;99702.53;;;33.66;nan
64404;BME280;50726;54.912;-8.392;2022-10-16T08:21:36;99692.88;;;33.91;nan
64404;BME280;50726;54.912;-8.392;2022-10-16T08:24:02;99689.09;;;33.98;nan
64404;BME280;50726;54.912;-8.392;2022-10-16T08:26:27;99699.13;;;34.05;nan
64404;BME280;50726;54.912;-8.392;2022-10-16T08:28:53;99702.44;;;34.13;nan
64404;BME280;50726;54.912;-8.392;2022-10-16T08:31:19;99705.38;;;34.12;nan
64404;BME280;50726;54.912;-8.392;2022-10-16T08:33:45;99706.63;;;33.96;nan
64404;BME280;50726;54.912;-8.392;2022-10-16T08:36:13;99709.53;;;34.28;nan
64404;BME280;50726;54.912;-8.392;2022-10-16T08:38:39;99708.91;;;35.17;nan
64404;BME280;50726;54.912;-8.392;2022-10-16T08:42:15;99711.50;;;36.26;nan
64404;BME280;50726;54.912;-8.392;2022-10-16T08:49:30;99712.72;;;37.22;nan
64404;BME280;50726;54.912;-8.392;2022-10-16T08:51:56;99708.84;;;36.19;nan
64404;BME280;50726;54.912;-8.392;2022-10-16T08:54:34;99694.06;;;38.09;nan
64404;BME280;50726;54.912;-8.392;2022-10-16T08:57:16;99692.78;;;37.64;nan
64404;BME280;50726;54.912;-8.392;2022-10-16T08:59:42;99698.31;;;36.04;nan
64404;BME280;50726;54.912;-8.392;2022-10-16T09:05:00;99702.00;;;36.97;nan
64404;BME280;50726;54.912;-8.392;2022-10-16T09:15:55;99710.13;;;38.76;nan
64404;BME280;50726;54.912;-8.392;2022-10-16T09:21:21;99695.47;;;39.28;nan
64404;BME280;50726;54.912;-8.392;2022-10-16T09:23:48;99698.31;;;36.04;nan
64404;BME280;50726;54.912;-8.392;2022-10-16T09:26:16;99696.41;;;36.61;nan
64404;BME280;50726;54.912;-8.392;2022-10-16T09:28:43;99711.56;;;36.19;nan
64404;BME280;50726;54.912;-8.392;2022-10-16T09:31:15;99717.03;;;36.99;nan
64404;BME280;50726;54.912;-8.392;2022-10-16T09:33:42;99707.94;;;37.60;nan
64404;BME280;50726;54.912;-8.392;2022-10-16T09:36:10;99710.66;;;38.61;nan
64404;BME280;50726;54.912;-8.392;2022-10-16T09:38:38;99717.06;;;37.42;nan
64404;BME280;50726;54.912;-8.392;2022-10-16T09:44:03;99727.69;;;39.26;nan
64404;BME280;50726;54.912;-8.392;2022-10-16T09:46:36;99727.75;;;38.15;nan
64404;BME280;50726;54.912;-8.392;2022-10-16T09:49:23;99724.44;;;37.65;nan
64404;BME280;50726;54.912;-8.392;2022-10-16T09:51:50;99738.19;;;38.30;nan
64404;BME280;50726;54.912;-8.392;2022-10-16T09:54:21;99739.06;;;41.26;nan
64404;BME280;50726;54.912;-8.392;2022-10-16T09:56:48;99746.38;;;40.43;nan
64404;BME280;50726;54.912;-8.392;2022-10-16T09:59:18;99744.69;;;40.86;nan
64404;BME280;50726;54.912;-8.392;2022-10-16T10:01:51;99734.97;;;39.38;nan
64404;BME280;50726;54.912;-8.392;2022-10-16T10:04:19;99752.41;;;38.20;nan
64404;BME280;50726;54.912;-8.392;2022-10-16T10:06:51;99758.50;;;36.14;nan
64404;BME280;50726;54.912;-8.392;2022-10-16T10:09:23;99757.31;;;37.82;nan
64404;BME280;50726;54.912;-8.392;2022-10-16T10:19:57;99769.69;;;37.54;nan
64404;BME280;50726;54.912;-8.392;2022-10-16T10:22:30;99764.41;;;38.19;nan
64404;BME280;50726;54.912;-8.392;2022-10-16T10:25:00;99774.16;;;35.43;nan
64404;BME280;50726;54.912;-8.392;2022-10-16T10:27:36;99772.13;;;37.74;nan
64404;BME280;50726;54.912;-8.392;2022-10-16T10:33:37;99778.75;;;37.79;nan
64404;BME280;50726;54.912;-8.392;2022-10-16T10:38:50;99794.22;;;36.44;nan
64404;BME280;50726;54.912;-8.392;2022-10-16T10:52:20;99783.22;;;37.49;nan
64404;BME280;50726;54.912;-8.392;2022-10-16T10:55:09;99771.97;;;37.15;nan
64404;BME280;50726;54.912;-8.392;2022-10-16T11:00:21;99770.66;;;38.44;nan
64404;BME280;50726;54.912;-8.392;2022-10-16T11:03:42;99765.81;;;38.34;nan
64404;BME280;50726;54.912;-8.392;2022-10-16T11:05:47;99781.19;;;37.44;nan
64404;BME280;50726;54.912;-8.392;2022-10-16T11:08:19;99778.97;;;38.49;nan
64404;BME280;50726;54.912;-8.392;2022-10-16T11:16:32;99775.06;;;36.88;nan
64404;BME280;50726;54.912;-8.392;2022-10-16T11:19:05;99781.75;;;33.55;nan
64404;BME280;50726;54.912;-8.392;2022-10-16T11:24:53;99791.63;;;36.49;nan
64404;BME280;50726;54.912;-8.392;2022-10-16T11:27:29;99799.13;;;34.80;nan
64404;BME280;50726;54.912;-8.392;2022-10-16T11:30:02;99798.25;;;35.65;nan
64404;BME280;50726;54.912;-8.392;2022-10-16T11:33:00;99808.44;;;33.71;nan
64404;BME280;50726;54.912;-8.392;2022-10-16T11:35:29;99810.97;;;34.20;nan
64404;BME280;50726;54.912;-8.392;2022-10-16T11:37:58;99824.19;;;33.20;nan
64404;BME280;50726;54.912;-8.392;2022-10-16T11:40:38;99819.03;;;36.73;nan
64404;BME280;50726;54.912;-8.392;2022-10-16T11:43:15;99818.91;;;36.67;nan
64404;BME280;50726;54.912;-8.392;2022-10-16T11:45:57;99822.84;;;37.64;nan
64404;BME280;50726;54.912;-8.392;2022-10-16T11:51:45;99801.78;;;40.27;nan
64404;BME280;50726;54.912;-8.392;2022-10-16T11:57:21;99801.44;;;38.39;nan
64404;BME280;50726;54.912;-8.392;2022-10-16T11:59:55;99797.63;;;37.68;nan
64404;BME280;50726;54.912;-8.392;2022-10-16T12:03:05;99802.34;;;39.10;nan
64404;BME280;50726;54.912;-8.392;2022-10-16T12:08:14;99801.47;;;38.15;nan
64404;BME280;50726;54.912;-8.392;2022-10-16T12:10:46;99810.97;;;40.38;nan
64404;BME280;50726;54.912;-8.392;2022-10-16T12:13:35;99815.00;;;36.75;nan
64404;BME280;50726;54.912;-8.392;2022-10-16T12:18:31;99833.47;;;35.53;nan
64404;BME280;50726;54.912;-8.392;2022-10-16T12:20:58;99832.66;;;34.34;nan
64404;BME280;50726;54.912;-8.392;2022-10-16T12:23:29;99845.59;;;34.18;nan
64404;BME280;50726;54.912;-8.392;2022-10-16T12:25:56;99854.19;;;35.47;nan
64404;BME280;50726;54.912;-8.392;2022-10-16T12:28:28;99860.19;;;36.83;nan
64404;BME280;50726;54.912;-8.392;2022-10-16T12:30:58;99845.78;;;35.87;nan
64404;BME280;50726;54.912;-8.392;2022-10-16T12:33:39;99842.69;;;34.06;nan
64404;BME280;50726;54.912;-8.392;2022-10-16T12:36:31;99839.19;;;36.27;nan
64404;BME280;50726;54.912;-8.392;2022-10-16T12:38:59;99847.31;;;36.90;nan
64404;BME280;50726;54.912;-8.392;2022-10-16T12:41:31;99857.63;;;36.70;nan
64404;BME280;50726;54.912;-8.392;2022-10-16T12:43:58;99857.56;;;36.32;nan
64404;BME280;50726;54.912;-8.392;2022-10-16T12:49:22;99851.19;;;35.94;nan
64404;BME280;50726;54.912;-8.392;2022-10-16T12:51:53;99857.69;;;36.19;nan
64404;BME280;50726;54.912;-8.392;2022-10-16T12:54:31;99857.13;;;35.84;nan
64404;BME280;50726;54.912;-8.392;2022-10-16T13:02:55;99853.31;;;36.36;nan
64404;BME280;50726;54.912;-8.392;2022-10-16T13:05:52;99854.00;;;38.46;nan
64404;BME280;50726;54.912;-8.392;2022-10-16T13:08:39;99855.59;;;37.33;nan
64404;BME280;50726;54.912;-8.392;2022-10-16T13:27:55;99827.13;;;37.71;nan
64404;BME280;50726;54.912;-8.392;2022-10-16T13:31:09;99814.94;;;39.57;nan
64404;BME280;50726;54.912;-8.392;2022-10-16T13:33:37;99822.59;;;39.43;nan
64404;BME280;50726;54.912;-8.392;2022-10-16T13:36:04;99817.72;;;39.45;nan
64404;BME280;50726;54.912;-8.392;2022-10-16T13:38:33;99830.53;;;35.86;nan
64404;BME280;50726;54.912;-8.392;2022-10-16T13:41:05;99827.69;;;35.74;nan
64404;BME280;50726;54.912;-8.392;2022-10-16T13:43:46;99823.69;;;36.47;nan
64404;BME280;50726;54.912;-8.392;2022-10-16T13:46:19;99831.19;;;37.07;nan
64404;BME280;50726;54.912;-8.392;2022-10-16T13:49:14;99819.53;;;37.61;nan
64404;BME280;50726;54.912;-8.392;2022-10-16T13:51:41;99818.72;;;36.81;nan
64404;BME280;50726;54.912;-8.392;2022-10-16T13:54:12;99807.34;;;36.84;nan
64404;BME280;50726;54.912;-8.392;2022-10-16T13:56:39;99810.44;;;37.06;nan
64404;BME280;50726;54.912;-8.392;2022-10-16T13:59:22;99803.56;;;35.20;nan
64404;BME280;50726;54.912;-8.392;2022-10-16T14:01:54;99807.00;;;36.80;nan
64404;BME280;50726;54.912;-8.392;2022-10-16T14:04:22;99805.00;;;36.32;nan
64404;BME280;50726;54.912;-8.392;2022-10-16T14:06:53;99807.41;;;34.92;nan
64404;BME280;50726;54.912;-8.392;2022-10-16T14:09:31;99796.28;;;37.16;nan
64404;BME280;50726;54.912;-8.392;2022-10-16T14:12:07;99801.16;;;36.21;nan
64404;BME280;50726;54.912;-8.392;2022-10-16T14:14:49;99788.34;;;38.05;nan
64404;BME280;50726;54.912;-8.392;2022-10-16T14:17:22;99781.56;;;39.43;nan
64404;BME280;50726;54.912;-8.392;2022-10-16T14:19:50;99785.66;;;37.93;nan
64404;BME280;50726;54.912;-8.392;2022-10-16T14:25:24;99782.81;;;37.88;nan
64404;BME280;50726;54.912;-8.392;2022-10-16T14:28:05;99771.66;;;39.54;nan
64404;BME280;50726;54.912;-8.392;2022-10-16T14:30:56;99768.13;;;39.07;nan
64404;BME280;50726;54.912;-8.392;2022-10-16T14:33:25;99774.59;;;36.91;nan
64404;BME280;50726;54.912;-8.392;2022-10-16T14:36:11;99770.28;;;38.93;nan
64404;BME280;50726;54.912;-8.392;2022-10-16T14:38:39;99769.28;;;37.27;nan
64404;BME280;50726;54.912;-8.392;2022-10-16T14:41:05;99768.78;;;38.20;nan
64404;BME280;50726;54.912;-8.392;2022-10-16T14:43:32;99771.53;;;37.30;nan
64404;BME280;50726;54.912;-8.392;2022-10-16T14:45:59;99771.97;;;36.47;nan
64404;BME280;50726;54.912;-8.392;2022-10-16T14:48:30;99779.03;;;36.10;nan
64404;BME280;50726;54.912;-8.392;2022-10-16T14:50:56;99768.75;;;34.38;nan
64404;BME280;50726;54.912;-8.392;2022-10-16T14:53:23;99770.69;;;37.60;nan
64404;BME280;50726;54.912;-8.392;2022-10-16T14:55:48;99773.44;;;37.29;nan
64404;BME280;50726;54.912;-8.392;2022-10-16T14:58:15;99767.66;;;36.20;nan
64404;BME280;50726;54.912;-8.392;2022-10-16T15:00:46;99763.53;;;37.47;nan
64404;BME280;50726;54.912;-8.392;2022-10-16T15:03:13;99762.75;;;38.18;nan
64404;BME280;50726;54.912;-8.392;2022-10-16T15:05:39;99758.59;;;38.04;nan
64404;BME280;50726;54.912;-8.392;2022-10-16T15:08:06;99739.38;;;39.90;nan
64404;BME280;50726;54.912;-8.392;2022-10-16T15:10:38;99745.34;;;40.04;nan
64404;BME280;50726;54.912;-8.392;2022-10-16T15:13:04;99735.81;;;37.74;nan
64404;BME280;50726;54.912;-8.392;2022-10-16T15:15:45;99728.75;;;38.38;nan
64404;BME280;50726;54.912;-8.392;2022-10-16T15:18:11;99723.97;;;38.16;nan
64404;BME280;50726;54.912;-8.392;2022-10-16T15:20:40;99713.69;;;38.35;nan